createdAt,value
2022-09-16T00:00:35.002Z,54.00
2022-09-16T00:01:37.361Z,53.90
2022-09-16T00:02:40.317Z,53.90
2022-09-16T00:03:42.647Z,53.80
2022-09-16T00:04:44.820Z,53.80
2022-09-16T00:05:48.436Z,53.80
2022-09-16T00:06:50.691Z,53.80
2022-09-16T00:07:53.551Z,54.20
2022-09-16T00:08:56.681Z,53.70
2022-09-16T00:09:58.953Z,53.70
2022-09-16T00:11:01.703Z,53.70
2022-09-16T00:12:04.779Z,53.70
2022-09-16T00:13:07.236Z,53.70
2022-09-16T00:14:09.818Z,53.70
2022-09-16T00:15:12.158Z,53.70
2022-09-16T00:16:19.020Z,53.60
2022-09-16T00:17:21.850Z,53.70
2022-09-16T00:18:25.166Z,53.70
2022-09-16T00:19:27.362Z,53.70
2022-09-16T00:20:29.525Z,53.80
2022-09-16T00:21:31.908Z,53.80
2022-09-16T00:22:34.551Z,53.80
2022-09-16T00:23:37.061Z,53.80
2022-09-16T00:24:39.272Z,53.80
2022-09-16T00:25:41.516Z,53.90
2022-09-16T00:26:43.726Z,53.80
2022-09-16T00:27:47.755Z,53.80
2022-09-16T00:28:50.708Z,53.70
2022-09-16T00:29:53.698Z,53.70
2022-09-16T00:30:59.827Z,53.60
2022-09-16T00:32:02.950Z,53.60
2022-09-16T00:33:05.222Z,53.60
2022-09-16T00:34:07.430Z,53.60
2022-09-16T00:35:09.650Z,53.60
2022-09-16T00:36:18.836Z,53.60
2022-09-16T00:37:21.057Z,53.60
2022-09-16T00:38:23.361Z,53.60
2022-09-16T00:39:25.835Z,53.60
2022-09-16T00:40:28.228Z,53.60
2022-09-16T00:41:33.162Z,53.60
2022-09-16T00:42:39.671Z,53.70
2022-09-16T00:43:51.065Z,53.80
2022-09-16T00:44:57.963Z,53.70
2022-09-16T00:46:02.227Z,53.80
2022-09-16T00:47:04.654Z,53.80
2022-09-16T00:48:09.652Z,53.80
2022-09-16T00:49:17.947Z,53.90
2022-09-16T00:50:32.053Z,53.90
2022-09-16T00:51:34.625Z,53.90
2022-09-16T00:52:37.558Z,53.90
2022-09-16T00:53:45.885Z,53.80
2022-09-16T00:54:48.435Z,53.70
2022-09-16T00:55:51.761Z,53.70
2022-09-16T00:56:55.738Z,53.70
2022-09-16T00:58:01.425Z,53.70
2022-09-16T00:59:09.473Z,53.80
2022-09-16T01:00:13.483Z,53.60
2022-09-16T01:01:15.807Z,53.60
2022-09-16T01:02:19.590Z,53.50
2022-09-16T01:03:22.243Z,53.40
2022-09-16T01:04:26.953Z,53.40
2022-09-16T01:05:29.420Z,53.50
2022-09-16T01:06:35.836Z,53.50
2022-09-16T01:07:40.649Z,53.50
2022-09-16T01:08:43.537Z,53.40
2022-09-16T01:09:45.888Z,53.50
2022-09-16T01:10:48.153Z,53.80
2022-09-16T01:11:50.442Z,53.80
2022-09-16T01:12:56.766Z,54.40
2022-09-16T01:14:19.956Z,53.90
2022-09-16T01:15:30.355Z,53.90
2022-09-16T01:16:38.394Z,53.90
2022-09-16T01:17:43.731Z,53.50
2022-09-16T01:18:56.438Z,53.50
2022-09-16T01:20:07.689Z,53.50
2022-09-16T01:21:25.376Z,53.50
2022-09-16T01:22:46.056Z,53.50
2022-09-16T01:23:51.002Z,53.50
2022-09-16T01:25:05.275Z,53.50
2022-09-16T01:26:13.284Z,53.40
2022-09-16T01:27:21.658Z,53.30
2022-09-16T01:28:23.895Z,53.30
2022-09-16T01:29:31.975Z,53.30
2022-09-16T01:30:36.893Z,53.30
2022-09-16T01:31:46.639Z,53.30
2022-09-16T01:33:14.009Z,53.30
2022-09-16T01:34:34.939Z,53.20
2022-09-16T01:35:52.684Z,53.50
2022-09-16T01:37:07.649Z,53.50
2022-09-16T01:38:18.235Z,53.50
2022-09-16T01:39:26.300Z,53.50
2022-09-16T01:40:33.387Z,53.50
2022-09-16T01:41:41.604Z,53.50
2022-09-16T01:42:47.581Z,53.50
2022-09-16T01:43:55.798Z,53.50
2022-09-16T01:45:05.882Z,53.50
2022-09-16T01:46:08.148Z,53.60
2022-09-16T01:47:21.620Z,53.50
2022-09-16T01:48:24.272Z,53.50
2022-09-16T01:49:35.295Z,53.50
2022-09-16T01:51:00.718Z,53.50
2022-09-16T01:52:06.015Z,53.80
2022-09-16T01:53:11.819Z,53.60
2022-09-16T01:54:28.095Z,53.30
2022-09-16T01:55:33.531Z,53.20
2022-09-16T01:56:47.910Z,53.30
2022-09-16T01:57:59.709Z,53.20
2022-09-16T01:59:18.469Z,53.30
2022-09-16T02:00:20.893Z,53.30
2022-09-16T02:01:27.068Z,53.20
2022-09-16T02:02:32.305Z,53.20
2022-09-16T02:03:36.519Z,53.30
2022-09-16T02:04:44.829Z,53.30
2022-09-16T02:05:49.871Z,53.30
2022-09-16T02:06:53.134Z,53.30
2022-09-16T02:07:59.569Z,53.30
2022-09-16T02:09:06.573Z,53.20
2022-09-16T02:10:13.503Z,53.30
2022-09-16T02:11:17.980Z,53.30
2022-09-16T02:12:22.348Z,53.30
2022-09-16T02:13:41.295Z,53.30
2022-09-16T02:14:45.194Z,53.30
2022-09-16T02:15:50.253Z,53.40
2022-09-16T02:16:59.308Z,53.40
2022-09-16T02:18:10.711Z,53.50
2022-09-16T02:19:16.745Z,53.50
2022-09-16T02:20:22.303Z,53.50
2022-09-16T02:21:27.638Z,53.40
2022-09-16T02:22:34.910Z,53.40
2022-09-16T02:23:56.923Z,53.40
2022-09-16T02:25:00.344Z,53.40
2022-09-16T02:26:04.667Z,53.40
2022-09-16T02:27:10.714Z,53.40
2022-09-16T02:28:16.021Z,53.40
2022-09-16T02:29:20.940Z,53.30
2022-09-16T02:30:23.822Z,53.30
2022-09-16T02:31:28.281Z,53.40
2022-09-16T02:32:32.216Z,53.30
2022-09-16T02:33:40.578Z,53.30
2022-09-16T02:34:45.182Z,53.40
2022-09-16T02:35:48.482Z,53.40
2022-09-16T02:36:53.195Z,53.40
2022-09-16T02:38:00.406Z,53.40
2022-09-16T02:39:08.451Z,53.40
2022-09-16T02:40:13.837Z,53.40
2022-09-16T02:41:16.167Z,53.50
2022-09-16T02:42:18.451Z,53.50
2022-09-16T02:43:20.790Z,53.40
2022-09-16T02:44:23.893Z,53.50
2022-09-16T02:45:33.704Z,53.50
2022-09-16T02:46:54.520Z,53.40
2022-09-16T02:48:11.639Z,53.50
2022-09-16T02:49:32.419Z,53.60
2022-09-16T02:50:52.813Z,53.60
2022-09-16T02:52:13.660Z,53.60
2022-09-16T02:53:25.019Z,53.60
2022-09-16T02:54:30.225Z,53.50
2022-09-16T02:55:38.468Z,53.40
2022-09-16T02:56:41.463Z,53.40
2022-09-16T02:57:43.776Z,53.40
2022-09-16T02:58:46.541Z,53.40
2022-09-16T02:59:49.278Z,53.40
2022-09-16T03:00:53.325Z,53.40
2022-09-16T03:01:55.621Z,53.40
2022-09-16T03:02:58.046Z,53.40
2022-09-16T03:04:00.371Z,53.40
2022-09-16T03:05:03.514Z,53.40
2022-09-16T03:06:08.470Z,53.40
2022-09-16T03:07:11.133Z,53.40
2022-09-16T03:08:13.382Z,53.30
2022-09-16T03:09:17.990Z,53.20
2022-09-16T03:10:20.749Z,53.60
2022-09-16T03:11:30.293Z,53.10
2022-09-16T03:12:50.846Z,53.00
2022-09-16T03:14:25.300Z,53.00
2022-09-16T03:15:38.685Z,52.90
2022-09-16T03:16:50.025Z,52.90
2022-09-16T03:18:08.555Z,52.90
2022-09-16T03:19:23.668Z,52.90
2022-09-16T03:20:34.952Z,53.00
2022-09-16T03:21:48.059Z,53.00
2022-09-16T03:22:56.324Z,53.10
2022-09-16T03:24:14.579Z,53.10
2022-09-16T03:25:30.729Z,53.10
2022-09-16T03:26:48.001Z,53.10
2022-09-16T03:27:51.942Z,53.10
2022-09-16T03:29:09.708Z,53.10
2022-09-16T03:30:12.127Z,53.20
2022-09-16T03:31:26.386Z,53.10
2022-09-16T03:32:32.467Z,53.10
2022-09-16T03:33:41.750Z,53.10
2022-09-16T03:34:55.390Z,53.10
2022-09-16T03:35:59.695Z,53.00
2022-09-16T03:37:04.929Z,53.00
2022-09-16T03:38:08.166Z,53.00
2022-09-16T03:39:11.145Z,53.00
2022-09-16T03:40:15.362Z,53.10
2022-09-16T03:41:17.687Z,53.10
2022-09-16T03:42:20.463Z,53.10
2022-09-16T03:43:22.744Z,53.20
2022-09-16T03:44:31.781Z,53.20
2022-09-16T03:45:34.004Z,53.20
2022-09-16T03:46:36.324Z,53.30
2022-09-16T03:47:38.950Z,53.20
2022-09-16T03:48:41.119Z,53.10
2022-09-16T03:49:43.375Z,53.00
2022-09-16T03:50:45.923Z,52.80
2022-09-16T03:51:48.106Z,52.80
2022-09-16T03:52:50.352Z,52.80
2022-09-16T03:53:53.178Z,52.80
2022-09-16T03:54:55.455Z,52.80
2022-09-16T03:55:57.688Z,52.90
2022-09-16T03:57:00.545Z,53.00
2022-09-16T03:58:02.764Z,53.00
2022-09-16T03:59:04.946Z,53.00
2022-09-16T04:00:08.139Z,53.00
2022-09-16T04:01:19.477Z,53.10
2022-09-16T04:02:21.772Z,53.30
2022-09-16T04:03:23.974Z,53.30
2022-09-16T04:04:26.223Z,53.50
2022-09-16T04:05:28.547Z,53.80
2022-09-16T04:06:30.822Z,53.90
2022-09-16T04:07:33.542Z,53.90
2022-09-16T04:08:36.123Z,53.80
2022-09-16T04:09:38.390Z,53.70
2022-09-16T04:10:40.549Z,53.80
2022-09-16T04:11:43.005Z,53.80
2022-09-16T04:12:45.393Z,53.80
2022-09-16T04:13:47.605Z,53.90
2022-09-16T04:14:50.804Z,53.80
2022-09-16T04:15:53.073Z,53.80
2022-09-16T04:16:55.379Z,53.60
2022-09-16T04:17:57.582Z,53.50
2022-09-16T04:18:59.790Z,53.60
2022-09-16T04:20:02.208Z,53.50
2022-09-16T04:21:04.897Z,53.40
2022-09-16T04:22:07.039Z,53.40
2022-09-16T04:23:09.486Z,53.40
2022-09-16T04:24:13.286Z,53.40
2022-09-16T04:25:15.881Z,53.40
2022-09-16T04:26:18.305Z,53.40
2022-09-16T04:27:20.522Z,53.40
2022-09-16T04:28:22.846Z,53.30
2022-09-16T04:29:25.044Z,53.20
2022-09-16T04:30:27.497Z,53.20
2022-09-16T04:31:29.792Z,53.20
2022-09-16T04:32:32.035Z,53.30
2022-09-16T04:33:35.123Z,53.10
2022-09-16T04:34:37.320Z,52.90
2022-09-16T04:35:39.540Z,52.90
2022-09-16T04:36:41.838Z,53.00
2022-09-16T04:37:44.024Z,53.20
2022-09-16T04:38:47.587Z,53.30
2022-09-16T04:39:50.017Z,53.30
2022-09-16T04:40:54.291Z,53.40
2022-09-16T04:41:56.676Z,53.40
2022-09-16T04:42:58.884Z,53.80
2022-09-16T04:44:01.154Z,53.30
2022-09-16T04:45:03.547Z,53.30
2022-09-16T04:46:06.695Z,53.40
2022-09-16T04:47:08.934Z,53.60
2022-09-16T04:48:11.120Z,53.80
2022-09-16T04:49:13.354Z,53.90
2022-09-16T04:50:15.697Z,53.80
2022-09-16T04:51:19.705Z,53.80
2022-09-16T04:52:21.865Z,53.90
2022-09-16T04:53:24.035Z,53.90
2022-09-16T04:54:26.183Z,54.50
2022-09-16T04:55:28.513Z,54.30
2022-09-16T04:56:32.331Z,54.10
2022-09-16T04:57:34.641Z,54.00
2022-09-16T04:58:37.087Z,53.90
2022-09-16T04:59:39.337Z,53.90
2022-09-16T05:00:41.609Z,53.90
2022-09-16T05:01:43.902Z,54.00
2022-09-16T05:02:46.190Z,54.00
2022-09-16T05:03:49.571Z,54.10
2022-09-16T05:04:51.759Z,54.10
2022-09-16T05:05:54.058Z,54.20
2022-09-16T05:06:56.401Z,54.20
2022-09-16T05:07:58.644Z,54.20
2022-09-16T05:09:01.235Z,54.30
2022-09-16T05:10:03.973Z,54.40
2022-09-16T05:11:07.399Z,54.40
2022-09-16T05:12:09.624Z,54.50
2022-09-16T05:13:11.817Z,54.40
2022-09-16T05:14:15.901Z,54.40
2022-09-16T05:15:18.273Z,54.40
2022-09-16T05:16:21.730Z,54.40
2022-09-16T05:17:46.978Z,54.90
2022-09-16T05:18:47.287Z,54.50
2022-09-16T05:19:49.564Z,54.60
2022-09-16T05:20:56.309Z,54.70
2022-09-16T05:21:58.585Z,54.60
2022-09-16T05:23:00.793Z,54.60
2022-09-16T05:24:03.956Z,54.50
2022-09-16T05:25:06.457Z,54.60
2022-09-16T05:26:10.549Z,54.50
2022-09-16T05:27:13.187Z,54.20
2022-09-16T05:28:15.563Z,53.90
2022-09-16T05:29:18.905Z,54.00
2022-09-16T05:30:25.877Z,53.90
2022-09-16T05:31:31.056Z,53.90
2022-09-16T05:32:34.158Z,53.90
2022-09-16T05:33:36.677Z,53.90
2022-09-16T05:34:38.980Z,53.90
2022-09-16T05:35:41.879Z,53.80
2022-09-16T05:36:44.265Z,53.70
2022-09-16T05:37:46.925Z,53.70
2022-09-16T05:39:18.095Z,53.70
2022-09-16T05:40:15.191Z,53.50
2022-09-16T05:41:18.110Z,53.30
2022-09-16T05:42:20.834Z,53.20
2022-09-16T05:43:23.149Z,53.30
2022-09-16T05:44:26.185Z,53.30
2022-09-16T05:45:32.179Z,53.20
2022-09-16T05:46:35.550Z,53.10
2022-09-16T05:47:38.030Z,53.10
2022-09-16T05:48:40.478Z,53.00
2022-09-16T05:49:42.699Z,53.30
2022-09-16T05:50:58.570Z,53.10
2022-09-16T05:52:00.856Z,53.20
2022-09-16T05:53:03.154Z,53.20
2022-09-16T05:54:05.816Z,53.10
2022-09-16T05:55:08.339Z,53.10
2022-09-16T05:56:12.199Z,53.80
2022-09-16T05:57:14.689Z,53.30
2022-09-16T05:58:16.913Z,53.30
2022-09-16T05:59:19.259Z,53.40
2022-09-16T06:00:21.587Z,53.10
2022-09-16T06:01:28.251Z,53.20
2022-09-16T06:02:30.697Z,53.00
2022-09-16T06:03:34.980Z,53.00
2022-09-16T06:04:37.303Z,52.90
2022-09-16T06:05:43.717Z,52.80
2022-09-16T06:06:47.969Z,52.70
2022-09-16T06:07:56.287Z,52.40
2022-09-16T06:09:08.927Z,52.30
2022-09-16T06:10:11.212Z,52.40
2022-09-16T06:11:13.515Z,52.20
2022-09-16T06:12:15.957Z,52.30
2022-09-16T06:13:19.287Z,52.00
2022-09-16T06:14:23.024Z,52.20
2022-09-16T06:15:25.279Z,52.30
2022-09-16T06:16:28.197Z,52.30
2022-09-16T06:17:30.431Z,52.40
2022-09-16T06:18:33.869Z,52.20
2022-09-16T06:19:36.102Z,52.50
2022-09-16T06:20:38.348Z,52.70
2022-09-16T06:21:41.249Z,52.80
2022-09-16T06:22:43.564Z,52.90
2022-09-16T06:23:45.884Z,52.80
2022-09-16T06:24:48.401Z,52.60
2022-09-16T06:25:59.248Z,52.70
2022-09-16T06:27:01.418Z,52.60
2022-09-16T06:28:04.268Z,52.80
2022-09-16T06:29:07.297Z,52.80
2022-09-16T06:30:09.910Z,52.70
2022-09-16T06:31:18.062Z,52.70
2022-09-16T06:32:20.373Z,52.70
2022-09-16T06:33:22.646Z,52.80
2022-09-16T06:34:24.946Z,52.70
2022-09-16T06:35:27.184Z,52.80
2022-09-16T06:36:30.814Z,53.10
2022-09-16T06:37:34.161Z,52.90
2022-09-16T06:38:36.755Z,52.90
2022-09-16T06:39:39.327Z,53.40
2022-09-16T06:40:41.555Z,53.20
2022-09-16T06:41:43.967Z,53.20
2022-09-16T06:42:46.389Z,53.10
2022-09-16T06:43:51.181Z,53.40
2022-09-16T06:44:53.796Z,53.70
2022-09-16T06:45:57.559Z,53.50
2022-09-16T06:47:00.014Z,53.40
2022-09-16T06:48:02.401Z,53.30
2022-09-16T06:49:06.440Z,53.30
2022-09-16T06:50:09.163Z,53.30
2022-09-16T06:51:12.742Z,53.40
2022-09-16T06:52:15.085Z,53.40
2022-09-16T06:53:20.958Z,53.70
2022-09-16T06:54:23.297Z,53.80
2022-09-16T06:55:25.705Z,53.80
2022-09-16T06:56:28.242Z,53.80
2022-09-16T06:57:31.119Z,53.90
2022-09-16T06:58:34.192Z,54.00
2022-09-16T06:59:36.850Z,54.00
2022-09-16T07:00:39.306Z,54.10
2022-09-16T07:01:41.758Z,54.10
2022-09-16T07:02:44.592Z,54.00
2022-09-16T07:03:48.112Z,54.20
2022-09-16T07:04:50.601Z,54.10
2022-09-16T07:05:56.982Z,54.20
2022-09-16T07:07:15.799Z,53.90
2022-09-16T07:08:20.509Z,53.80
2022-09-16T07:09:27.961Z,54.00
2022-09-16T07:10:35.699Z,54.10
2022-09-16T07:11:43.618Z,54.30
2022-09-16T07:12:50.843Z,54.00
2022-09-16T07:14:01.171Z,53.90
2022-09-16T07:15:06.713Z,53.60
2022-09-16T07:16:14.183Z,53.80
2022-09-16T07:17:24.670Z,53.50
2022-09-16T07:18:33.442Z,52.90
2022-09-16T07:19:43.796Z,52.80
2022-09-16T07:20:49.767Z,53.00
2022-09-16T07:21:54.963Z,52.50
2022-09-16T07:22:59.548Z,52.30
2022-09-16T07:24:03.113Z,52.40
2022-09-16T07:25:07.345Z,52.10
2022-09-16T07:26:13.563Z,52.30
2022-09-16T07:27:23.647Z,52.10
2022-09-16T07:28:28.541Z,52.40
2022-09-16T07:29:34.207Z,52.50
2022-09-16T07:30:40.818Z,52.70
2022-09-16T07:31:47.356Z,52.60
2022-09-16T07:32:50.795Z,52.70
2022-09-16T07:33:57.298Z,52.40
2022-09-16T07:35:05.886Z,52.50
2022-09-16T07:36:10.324Z,52.50
2022-09-16T07:37:13.700Z,52.60
2022-09-16T07:38:16.130Z,52.90
2022-09-16T07:39:19.054Z,53.10
2022-09-16T07:40:21.527Z,53.00
2022-09-16T07:41:26.342Z,53.10
2022-09-16T07:42:29.419Z,52.90
2022-09-16T07:43:31.858Z,53.20
2022-09-16T07:44:34.960Z,52.80
2022-09-16T07:45:38.048Z,53.00
2022-09-16T07:46:40.532Z,53.30
2022-09-16T07:47:42.951Z,53.10
2022-09-16T07:48:45.960Z,53.10
2022-09-16T07:49:48.827Z,53.30
2022-09-16T07:50:55.028Z,53.10
2022-09-16T07:51:57.480Z,53.30
2022-09-16T07:52:59.963Z,53.00
2022-09-16T07:54:06.697Z,53.10
2022-09-16T07:55:10.491Z,52.90
2022-09-16T07:56:17.313Z,52.90
2022-09-16T07:57:19.783Z,53.00
2022-09-16T07:58:22.613Z,52.80
2022-09-16T07:59:24.972Z,52.80
2022-09-16T08:00:27.625Z,52.50
2022-09-16T08:01:31.236Z,52.50
2022-09-16T08:02:33.584Z,52.70
2022-09-16T08:03:36.610Z,52.60
2022-09-16T08:04:38.820Z,52.60
2022-09-16T08:05:41.317Z,52.40
2022-09-16T08:06:43.759Z,52.50
2022-09-16T08:07:46.077Z,52.40
2022-09-16T08:08:50.947Z,52.30
2022-09-16T08:09:53.791Z,52.40
2022-09-16T08:10:57.149Z,52.30
2022-09-16T08:12:01.612Z,52.50
2022-09-16T08:13:05.074Z,52.50
2022-09-16T08:14:07.672Z,52.70
2022-09-16T08:15:10.281Z,53.00
2022-09-16T08:16:13.905Z,52.60
2022-09-16T08:17:16.320Z,52.80
2022-09-16T08:18:18.696Z,52.80
2022-09-16T08:19:22.568Z,52.80
2022-09-16T08:20:26.344Z,52.90
2022-09-16T08:21:29.557Z,52.90
2022-09-16T08:22:32.079Z,52.90
2022-09-16T08:23:34.978Z,52.90
2022-09-16T08:24:37.242Z,52.90
2022-09-16T08:25:39.656Z,52.60
2022-09-16T08:26:42.095Z,52.60
2022-09-16T08:27:44.831Z,52.80
2022-09-16T08:29:07.747Z,52.90
2022-09-16T08:30:11.773Z,53.10
2022-09-16T08:31:14.090Z,52.60
2022-09-16T08:32:16.399Z,52.40
2022-09-16T08:33:21.478Z,53.00
2022-09-16T08:34:23.818Z,53.00
2022-09-16T08:35:26.640Z,53.00
2022-09-16T08:36:29.187Z,52.80
2022-09-16T08:37:31.538Z,52.70
2022-09-16T08:38:34.410Z,52.40
2022-09-16T08:39:37.030Z,52.50
2022-09-16T08:40:43.967Z,52.90
2022-09-16T08:41:55.195Z,52.30
2022-09-16T08:43:03.756Z,52.40
2022-09-16T08:44:06.024Z,52.20
2022-09-16T08:45:11.904Z,52.20
2022-09-16T08:46:31.619Z,52.20
2022-09-16T08:47:35.052Z,52.20
2022-09-16T08:49:00.699Z,52.30
2022-09-16T08:50:06.365Z,52.30
2022-09-16T08:51:13.166Z,52.40
2022-09-16T08:52:19.787Z,53.20
2022-09-16T08:53:33.527Z,53.00
2022-09-16T08:54:43.965Z,52.80
2022-09-16T08:55:48.298Z,53.00
2022-09-16T08:56:50.737Z,52.90
2022-09-16T08:57:58.082Z,52.70
2022-09-16T08:59:01.701Z,52.70
2022-09-16T09:00:22.153Z,52.60
2022-09-16T09:01:28.020Z,52.90
2022-09-16T09:03:46.390Z,52.60
2022-09-16T09:04:48.825Z,52.70
2022-09-16T09:05:55.421Z,52.60
2022-09-16T09:07:27.012Z,52.40
2022-09-16T09:08:32.518Z,52.20
2022-09-16T09:09:40.667Z,52.30
2022-09-16T09:10:49.425Z,52.00
2022-09-16T09:11:54.740Z,52.40
2022-09-16T09:13:10.245Z,52.00
2022-09-16T09:14:37.951Z,51.70
2022-09-16T09:15:47.637Z,51.50
2022-09-16T09:16:53.010Z,51.70
2022-09-16T09:18:16.186Z,51.40
2022-09-16T09:19:37.389Z,51.20
2022-09-16T09:20:45.558Z,52.10
2022-09-16T09:21:52.046Z,51.90
2022-09-16T09:23:09.284Z,51.20
2022-09-16T09:24:30.345Z,50.80
2022-09-16T09:25:38.486Z,51.10
2022-09-16T09:26:51.472Z,51.20
2022-09-16T09:28:12.336Z,51.20
2022-09-16T09:29:17.394Z,51.00
2022-09-16T09:30:23.423Z,50.70
2022-09-16T09:31:25.874Z,51.00
2022-09-16T09:32:28.175Z,51.20
2022-09-16T09:33:46.870Z,51.30
2022-09-16T09:35:08.222Z,51.30
2022-09-16T09:36:18.954Z,51.60
2022-09-16T09:37:30.134Z,51.70
2022-09-16T09:38:50.204Z,51.60
2022-09-16T09:40:11.160Z,51.80
2022-09-16T09:41:18.525Z,51.80
2022-09-16T09:42:22.035Z,51.70
2022-09-16T09:43:28.731Z,51.90
2022-09-16T09:44:33.832Z,51.90
2022-09-16T09:45:53.657Z,52.30
2022-09-16T09:46:58.443Z,52.40
2022-09-16T09:48:24.155Z,52.40
2022-09-16T09:49:29.244Z,52.40
2022-09-16T09:50:42.495Z,52.30
2022-09-16T09:51:49.681Z,52.00
2022-09-16T09:53:01.063Z,52.10
2022-09-16T09:54:06.465Z,52.30
2022-09-16T09:55:16.948Z,52.20
2022-09-16T09:56:30.439Z,51.70
2022-09-16T09:57:46.941Z,51.90
2022-09-16T09:58:52.125Z,52.20
2022-09-16T09:59:54.289Z,51.80
2022-09-16T10:00:58.894Z,51.80
2022-09-16T10:02:01.919Z,52.00
2022-09-16T10:03:05.916Z,51.70
2022-09-16T10:04:17.911Z,51.80
2022-09-16T10:05:23.156Z,51.90
2022-09-16T10:06:35.230Z,52.00
2022-09-16T10:07:39.395Z,52.00
2022-09-16T10:08:47.902Z,51.60
2022-09-16T10:10:18.104Z,51.50
2022-09-16T10:11:26.575Z,51.40
2022-09-16T10:12:31.170Z,51.70
2022-09-16T10:13:33.958Z,51.80
2022-09-16T10:14:37.441Z,51.50
2022-09-16T10:15:40.220Z,51.70
2022-09-16T10:16:47.571Z,51.50
2022-09-16T10:17:50.964Z,51.50
2022-09-16T10:19:08.906Z,51.30
2022-09-16T10:20:23.877Z,51.40
2022-09-16T10:21:26.452Z,50.90
2022-09-16T10:22:30.162Z,50.90
2022-09-16T10:23:32.742Z,51.20
2022-09-16T10:24:38.862Z,51.10
2022-09-16T10:25:41.959Z,51.20
2022-09-16T10:26:44.100Z,51.20
2022-09-16T10:27:55.037Z,51.30
2022-09-16T10:29:13.578Z,51.30
2022-09-16T10:30:17.178Z,51.30
2022-09-16T10:31:19.874Z,51.50
2022-09-16T10:32:23.128Z,51.20
2022-09-16T10:33:30.586Z,51.00
2022-09-16T10:34:34.881Z,51.30
2022-09-16T10:35:39.206Z,51.20
2022-09-16T10:36:42.453Z,51.30
2022-09-16T10:37:51.003Z,51.60
2022-09-16T10:39:00.959Z,52.10
2022-09-16T10:40:16.787Z,51.50
2022-09-16T10:41:24.631Z,51.10
2022-09-16T10:42:31.075Z,51.30
2022-09-16T10:43:34.382Z,51.30
2022-09-16T10:44:37.961Z,51.30
2022-09-16T10:45:51.064Z,51.10
2022-09-16T10:46:56.135Z,51.00
2022-09-16T10:48:03.440Z,50.70
2022-09-16T10:49:11.024Z,50.70
2022-09-16T10:50:18.517Z,50.80
2022-09-16T10:51:21.455Z,50.90
2022-09-16T10:52:26.277Z,51.00
2022-09-16T10:53:39.087Z,51.00
2022-09-16T10:54:45.249Z,50.40
2022-09-16T10:55:58.115Z,50.50
2022-09-16T10:57:01.826Z,50.40
2022-09-16T10:58:09.576Z,50.50
2022-09-16T10:59:14.685Z,50.60
2022-09-16T11:00:26.567Z,50.40
2022-09-16T11:01:49.130Z,50.30
2022-09-16T11:02:55.081Z,50.30
2022-09-16T11:03:58.037Z,50.50
2022-09-16T11:05:06.693Z,50.80
2022-09-16T11:06:24.982Z,51.30
2022-09-16T11:07:42.216Z,51.20
2022-09-16T11:08:59.457Z,51.10
2022-09-16T11:10:20.934Z,50.70
2022-09-16T11:11:38.025Z,50.60
2022-09-16T11:12:59.629Z,50.80
2022-09-16T11:14:21.345Z,50.80
2022-09-16T11:15:24.527Z,51.00
2022-09-16T11:16:34.866Z,50.40
2022-09-16T11:17:38.281Z,50.60
2022-09-16T11:18:56.059Z,50.70
2022-09-16T11:20:17.370Z,51.20
2022-09-16T11:21:19.975Z,51.20
2022-09-16T11:22:41.756Z,51.10
2022-09-16T11:23:44.695Z,51.30
2022-09-16T11:25:02.865Z,51.20
2022-09-16T11:26:24.724Z,51.20
2022-09-16T11:27:36.484Z,50.70
2022-09-16T11:29:00.058Z,50.40
2022-09-16T11:30:09.269Z,50.30
2022-09-16T11:31:15.453Z,50.60
2022-09-16T11:32:27.065Z,50.80
2022-09-16T11:33:36.960Z,50.20
2022-09-16T11:34:45.246Z,50.50
2022-09-16T11:35:47.916Z,50.40
2022-09-16T11:36:59.679Z,50.50
2022-09-16T11:38:11.133Z,50.50
2022-09-16T11:39:28.568Z,49.70
2022-09-16T11:40:49.811Z,49.20
2022-09-16T11:42:00.150Z,49.70
2022-09-16T11:43:21.681Z,50.00
2022-09-16T11:44:24.715Z,48.80
2022-09-16T11:45:27.266Z,48.70
2022-09-16T11:46:29.895Z,48.70
2022-09-16T11:47:34.995Z,48.30
2022-09-16T11:48:58.718Z,48.60
2022-09-16T11:50:13.406Z,48.70
2022-09-16T11:51:25.637Z,48.30
2022-09-16T11:52:38.191Z,47.90
2022-09-16T11:53:51.454Z,47.90
2022-09-16T11:55:12.104Z,48.60
2022-09-16T11:56:35.128Z,48.80
2022-09-16T11:57:42.945Z,48.30
2022-09-16T11:58:45.587Z,48.20
2022-09-16T11:59:50.852Z,47.30
2022-09-16T12:00:55.876Z,47.70
2022-09-16T12:02:02.311Z,47.50
2022-09-16T12:03:10.605Z,48.20
2022-09-16T12:04:26.150Z,48.90
2022-09-16T12:05:35.019Z,48.10
2022-09-16T12:06:42.415Z,48.30
2022-09-16T12:08:02.431Z,48.60
2022-09-16T12:09:11.148Z,48.90
2022-09-16T12:10:19.467Z,49.10
2022-09-16T12:11:27.448Z,49.10
2022-09-16T12:12:32.520Z,48.00
2022-09-16T12:13:41.612Z,47.40
2022-09-16T12:14:46.689Z,46.70
2022-09-16T12:15:51.118Z,46.80
2022-09-16T12:17:00.969Z,47.00
2022-09-16T12:18:15.753Z,46.60
2022-09-16T12:19:21.983Z,46.80
2022-09-16T12:20:29.883Z,47.40
2022-09-16T12:21:35.478Z,47.90
2022-09-16T12:22:43.718Z,47.10
2022-09-16T12:23:48.029Z,46.70
2022-09-16T12:24:58.089Z,47.10
2022-09-16T12:26:09.859Z,47.50
2022-09-16T12:27:30.428Z,46.40
2022-09-16T12:28:37.013Z,46.70
2022-09-16T12:29:46.920Z,46.90
2022-09-16T12:30:53.819Z,46.40
2022-09-16T12:32:00.475Z,46.50
2022-09-16T12:33:06.347Z,47.30
2022-09-16T12:34:22.494Z,46.30
2022-09-16T12:35:47.384Z,46.70
2022-09-16T12:36:52.487Z,46.60
2022-09-16T12:37:55.156Z,46.40
2022-09-16T12:38:58.289Z,46.80
2022-09-16T12:40:01.689Z,47.50
2022-09-16T12:41:06.835Z,47.20
2022-09-16T12:42:08.959Z,47.40
2022-09-16T12:43:24.269Z,47.50
2022-09-16T12:44:35.769Z,47.30
2022-09-16T12:45:44.465Z,46.60
2022-09-16T12:47:19.522Z,47.90
2022-09-16T12:48:35.926Z,46.70
2022-09-16T12:49:56.187Z,46.50
2022-09-16T12:51:10.569Z,46.20
2022-09-16T12:52:35.956Z,47.00
2022-09-16T12:53:38.506Z,47.10
2022-09-16T12:55:14.392Z,46.70
2022-09-16T12:56:31.877Z,46.70
2022-09-16T12:57:43.156Z,46.00
2022-09-16T12:59:03.816Z,45.30
2022-09-16T13:00:12.108Z,45.60
2022-09-16T13:01:20.346Z,45.60
2022-09-16T13:02:24.214Z,45.50
2022-09-16T13:03:28.096Z,45.00
2022-09-16T13:04:33.516Z,44.50
2022-09-16T13:05:37.361Z,45.30
2022-09-16T13:06:45.002Z,45.80
2022-09-16T13:07:52.224Z,46.10
2022-09-16T13:08:55.063Z,46.60
2022-09-16T13:10:05.059Z,46.20
2022-09-16T13:12:46.049Z,44.50
2022-09-16T13:13:50.035Z,44.70
2022-09-16T13:14:54.003Z,45.50
2022-09-16T13:15:57.294Z,45.60
2022-09-16T13:17:02.211Z,44.90
2022-09-16T13:18:16.836Z,44.10
2022-09-16T13:19:25.603Z,44.20
2022-09-16T13:20:32.355Z,44.60
2022-09-16T13:21:40.319Z,44.40
2022-09-16T13:23:00.993Z,44.60
2022-09-16T13:24:05.967Z,45.20
2022-09-16T13:25:10.828Z,44.80
2022-09-16T13:26:14.472Z,45.20
2022-09-16T13:27:25.161Z,44.40
2022-09-16T13:28:28.194Z,44.70
2022-09-16T13:29:44.346Z,44.70
2022-09-16T13:30:46.766Z,44.40
2022-09-16T13:31:49.163Z,45.60
2022-09-16T13:32:51.426Z,45.70
2022-09-16T13:33:59.454Z,45.40
2022-09-16T13:35:06.655Z,45.80
2022-09-16T13:36:14.704Z,45.30
2022-09-16T13:37:24.265Z,45.60
2022-09-16T13:38:36.750Z,45.60
2022-09-16T13:39:39.022Z,45.70
2022-09-16T13:40:53.243Z,45.70
2022-09-16T13:41:55.557Z,45.60
2022-09-16T13:43:09.823Z,45.30
2022-09-16T13:44:30.522Z,45.80
2022-09-16T13:45:37.585Z,46.10
2022-09-16T13:46:39.928Z,45.80
2022-09-16T13:47:48.561Z,45.40
2022-09-16T13:49:11.799Z,45.60
2022-09-16T13:50:16.094Z,45.60
2022-09-16T13:51:20.541Z,45.40
2022-09-16T13:52:34.007Z,45.60
2022-09-16T13:53:43.315Z,45.30
2022-09-16T13:55:09.444Z,45.60
2022-09-16T13:56:24.365Z,45.70
2022-09-16T13:57:35.844Z,45.40
2022-09-16T13:58:40.427Z,45.50
2022-09-16T13:59:51.434Z,44.80
2022-09-16T14:01:06.047Z,45.20
2022-09-16T14:02:18.114Z,45.10
2022-09-16T14:03:26.173Z,45.00
2022-09-16T14:04:57.802Z,45.00
2022-09-16T14:06:18.847Z,45.60
2022-09-16T14:07:39.684Z,45.60
2022-09-16T14:08:51.655Z,46.20
2022-09-16T14:10:03.664Z,45.20
2022-09-16T14:11:11.803Z,45.00
2022-09-16T14:12:22.837Z,45.60
2022-09-16T14:13:31.397Z,45.10
2022-09-16T14:14:50.078Z,45.30
2022-09-16T14:15:54.053Z,44.70
2022-09-16T14:16:56.365Z,44.00
2022-09-16T14:18:01.772Z,43.50
2022-09-16T14:19:04.344Z,43.50
2022-09-16T14:20:11.016Z,43.40
2022-09-16T14:21:20.734Z,43.60
2022-09-16T14:22:25.609Z,44.40
2022-09-16T14:23:28.458Z,43.60
2022-09-16T14:24:35.067Z,44.00
2022-09-16T14:25:38.638Z,43.60